createdAt,value
2018-11-01T00:00:59.477Z,4.00
2018-11-01T00:01:59.461Z,4.00
2018-11-01T00:02:59.535Z,4.00
2018-11-01T00:03:59.485Z,4.00
2018-11-01T00:04:59.388Z,4.00
2018-11-01T00:05:59.351Z,4.00
2018-11-01T00:06:59.321Z,4.00
2018-11-01T00:07:59.306Z,4.00
2018-11-01T00:08:59.379Z,4.00
2018-11-01T00:09:59.255Z,4.00
2018-11-01T00:10:59.229Z,4.00
2018-11-01T00:11:59.213Z,4.00
2018-11-01T00:12:59.176Z,4.00
2018-11-01T00:13:59.241Z,4.00
2018-11-01T00:14:59.120Z,4.00
2018-11-01T00:15:59.087Z,4.00
2018-11-01T00:16:59.045Z,4.00
2018-11-01T00:17:59.040Z,4.00
2018-11-01T00:18:59.108Z,4.00
2018-11-01T00:19:58.963Z,4.00
2018-11-01T00:20:58.973Z,4.00
2018-11-01T00:21:58.938Z,4.00
2018-11-01T00:22:58.933Z,4.00
2018-11-01T00:23:58.973Z,4.00
2018-11-01T00:24:58.935Z,4.00
2018-11-01T00:25:58.814Z,4.00
2018-11-01T00:26:58.796Z,4.00
2018-11-01T00:27:58.771Z,4.00
2018-11-01T00:28:58.922Z,4.00
2018-11-01T00:29:58.707Z,4.00
2018-11-01T00:30:58.714Z,4.00
2018-11-01T00:31:58.762Z,4.00
2018-11-01T00:32:58.681Z,4.00
2018-11-01T00:33:58.658Z,4.00
2018-11-01T00:34:58.666Z,4.00
2018-11-01T00:35:58.549Z,4.00
2018-11-01T00:36:58.575Z,4.00
2018-11-01T00:37:58.503Z,4.00
2018-11-01T00:38:58.505Z,4.00
2018-11-01T00:39:58.437Z,4.00
2018-11-01T00:40:58.540Z,4.00
2018-11-01T00:41:58.385Z,4.00
2018-11-01T00:42:58.396Z,4.00
2018-11-01T00:43:58.354Z,4.00
2018-11-01T00:44:58.334Z,4.00
2018-11-01T00:45:58.260Z,4.00
2018-11-01T00:46:58.367Z,4.00
2018-11-01T00:47:58.227Z,4.00
2018-11-01T00:48:58.189Z,4.00
2018-11-01T00:49:58.142Z,4.00
2018-11-01T00:50:58.142Z,4.00
2018-11-01T00:51:58.230Z,4.00
2018-11-01T00:52:58.099Z,4.00
2018-11-01T00:53:58.090Z,4.00
2018-11-01T00:54:58.050Z,4.00
2018-11-01T00:55:58.025Z,4.00
2018-11-01T00:56:58.091Z,4.00
2018-11-01T00:57:58.015Z,4.00
2018-11-01T00:58:57.991Z,4.00
2018-11-01T00:59:57.935Z,4.00
2018-11-01T01:00:57.875Z,4.00
2018-11-01T01:01:57.952Z,4.00
2018-11-01T01:02:57.832Z,4.00
2018-11-01T01:03:57.823Z,4.00
2018-11-01T01:04:57.771Z,4.00
2018-11-01T01:05:57.756Z,4.00
2018-11-01T01:06:57.869Z,4.00
2018-11-01T01:07:57.703Z,4.00
2018-11-01T01:08:57.682Z,4.00
2018-11-01T01:09:57.638Z,4.00
2018-11-01T01:10:57.632Z,4.00
2018-11-01T01:11:57.679Z,4.00
2018-11-01T01:12:57.672Z,4.00
2018-11-01T01:13:57.566Z,4.00
2018-11-01T01:14:57.508Z,4.00
2018-11-01T01:15:57.475Z,4.00
2018-11-01T01:16:57.450Z,4.00
2018-11-01T01:17:57.443Z,4.00
2018-11-01T01:18:57.630Z,4.00
2018-11-01T01:19:57.389Z,4.00
2018-11-01T01:20:57.357Z,4.00
2018-11-01T01:21:57.331Z,4.00
2018-11-01T01:22:57.312Z,4.00
2018-11-01T01:23:57.282Z,4.00
2018-11-01T01:24:57.348Z,4.00
2018-11-01T01:25:57.292Z,4.00
2018-11-01T01:26:57.223Z,4.00
2018-11-01T01:27:57.181Z,4.00
2018-11-01T01:28:57.149Z,4.00
2018-11-01T01:29:57.210Z,4.00
2018-11-01T01:30:57.300Z,4.00
2018-11-01T01:31:57.233Z,4.00
2018-11-01T01:32:57.125Z,4.00
2018-11-01T01:33:56.993Z,4.00
2018-11-01T01:34:57.601Z,4.00
2018-11-01T01:35:57.368Z,4.00
2018-11-01T01:36:57.187Z,4.00
2018-11-01T01:37:57.172Z,4.00
2018-11-01T01:38:57.172Z,4.00
2018-11-01T01:39:58.374Z,4.00
2018-11-01T01:40:57.006Z,4.00
2018-11-01T01:41:57.013Z,4.00
2018-11-01T01:42:56.931Z,4.00
2018-11-01T01:43:56.985Z,4.00
2018-11-01T01:44:56.704Z,0.00
2018-11-01T01:45:57.188Z,0.00
2018-11-01T01:46:57.077Z,0.00
2018-11-01T01:47:56.757Z,0.00
2018-11-01T01:48:56.650Z,0.00
2018-11-01T01:49:56.789Z,0.00
2018-11-01T01:50:56.560Z,0.00
2018-11-01T01:51:56.850Z,0.00
2018-11-01T01:52:56.730Z,0.00
2018-11-01T01:53:56.580Z,0.00
2018-11-01T01:54:56.538Z,0.00
2018-11-01T01:55:58.427Z,0.00
2018-11-01T01:56:57.677Z,0.00
2018-11-01T01:57:57.360Z,0.00
2018-11-01T01:58:56.969Z,0.00
2018-11-01T01:59:57.138Z,0.00
2018-11-01T02:00:57.996Z,0.00
2018-11-01T02:02:56.899Z,0.00
2018-11-01T02:03:57.505Z,0.00
2018-11-01T02:04:58.586Z,0.00
2018-11-01T02:06:00.635Z,0.00
2018-11-01T02:06:56.339Z,0.00
2018-11-01T02:07:56.641Z,0.00
2018-11-01T02:08:56.253Z,0.00
2018-11-01T02:09:56.751Z,0.00
2018-11-01T02:10:56.272Z,0.00
2018-11-01T02:11:56.195Z,0.00
2018-11-01T02:12:56.345Z,0.00
2018-11-01T02:13:56.096Z,0.00
2018-11-01T02:14:56.433Z,0.00
2018-11-01T02:15:55.877Z,0.00
2018-11-01T02:16:56.060Z,0.00
2018-11-01T02:17:56.320Z,0.00
2018-11-01T02:18:56.231Z,0.00
2018-11-01T02:19:55.966Z,0.00
2018-11-01T02:20:55.904Z,0.00
2018-11-01T02:21:55.750Z,0.00
2018-11-01T02:22:55.783Z,0.00
2018-11-01T02:23:56.165Z,0.00
2018-11-01T02:24:56.638Z,0.00
2018-11-01T02:25:55.775Z,0.00
2018-11-01T02:26:55.915Z,0.00
2018-11-01T02:27:55.924Z,0.00
2018-11-01T02:28:55.856Z,0.00
2018-11-01T02:29:55.693Z,0.00
2018-11-01T02:30:56.013Z,0.00
2018-11-01T02:31:55.944Z,0.00
2018-11-01T02:32:55.720Z,0.00
2018-11-01T02:33:55.372Z,0.00
2018-11-01T02:34:55.567Z,0.00
2018-11-01T02:35:55.322Z,0.00
2018-11-01T02:36:55.426Z,0.00
2018-11-01T02:37:55.485Z,0.00
2018-11-01T02:38:55.493Z,0.00
2018-11-01T02:39:55.500Z,0.00
2018-11-01T02:40:55.388Z,0.00
2018-11-01T02:41:55.411Z,0.00
2018-11-01T02:42:55.298Z,0.00
2018-11-01T02:43:55.503Z,0.00
2018-11-01T02:44:56.803Z,0.00
2018-11-01T02:45:55.559Z,0.00
2018-11-01T02:47:55.581Z,0.00
2018-11-01T02:49:56.049Z,0.00
2018-11-01T02:50:56.419Z,0.00
2018-11-01T02:51:56.876Z,0.00
2018-11-01T02:52:56.306Z,0.00
2018-11-01T02:53:55.821Z,0.00
2018-11-01T02:54:56.153Z,0.00
2018-11-01T02:55:57.167Z,0.00
2018-11-01T02:57:55.738Z,0.00
2018-11-01T02:59:55.419Z,0.00
2018-11-01T03:01:55.918Z,0.00
2018-11-01T03:02:55.160Z,0.00
2018-11-01T03:06:55.181Z,0.00
2018-11-01T03:07:55.055Z,0.00
2018-11-01T03:08:55.473Z,0.00
2018-11-01T03:09:55.549Z,0.00
2018-11-01T03:10:55.194Z,0.00
2018-11-01T03:11:56.181Z,0.00
2018-11-01T03:12:54.808Z,0.00
2018-11-01T03:14:54.761Z,0.00
2018-11-01T03:16:55.505Z,0.00
2018-11-01T03:17:55.328Z,0.00
2018-11-01T03:18:55.062Z,0.00
2018-11-01T03:19:55.476Z,0.00
2018-11-01T03:21:55.453Z,0.00
2018-11-01T03:22:54.933Z,0.00
2018-11-01T03:23:55.358Z,0.00
2018-11-01T03:24:54.503Z,0.00
2018-11-01T03:26:54.593Z,0.00
2018-11-01T03:29:55.305Z,0.00
2018-11-01T03:30:56.104Z,0.00
2018-11-01T03:31:55.850Z,0.00
2018-11-01T03:32:54.287Z,0.00
2018-11-01T03:33:55.225Z,0.00
2018-11-01T03:34:54.156Z,0.00
2018-11-01T03:35:54.517Z,0.00
2018-11-01T03:36:55.537Z,0.00
2018-11-01T03:37:55.305Z,0.00
2018-11-01T03:39:54.002Z,0.00
2018-11-01T03:41:55.793Z,0.00
2018-11-01T03:44:54.417Z,0.00
2018-11-01T03:47:54.418Z,0.00
2018-11-01T03:48:54.910Z,0.00
2018-11-01T03:52:53.700Z,0.00
2018-11-01T03:56:55.461Z,0.00
2018-11-01T03:57:54.554Z,0.00
2018-11-01T03:58:56.074Z,0.00
2018-11-01T03:59:53.964Z,0.00
2018-11-01T04:02:54.016Z,0.00
2018-11-01T04:03:54.431Z,0.00
2018-11-01T04:04:55.114Z,0.00
2018-11-01T04:05:53.423Z,0.00
2018-11-01T04:06:53.756Z,0.00
2018-11-01T04:07:55.146Z,0.00
2018-11-01T04:08:52.902Z,0.00
2018-11-01T04:09:54.518Z,0.00
2018-11-01T04:10:53.897Z,0.00
2018-11-01T04:11:54.584Z,0.00
2018-11-01T04:13:53.413Z,0.00
2018-11-01T04:14:53.673Z,0.00
2018-11-01T04:15:52.950Z,0.00
2018-11-01T04:16:53.580Z,0.00
2018-11-01T04:17:53.456Z,0.00
2018-11-01T04:18:52.643Z,0.00
2018-11-01T04:19:53.154Z,0.00
2018-11-01T04:22:53.084Z,0.00
2018-11-01T04:26:53.499Z,0.00
2018-11-01T04:27:52.339Z,0.00
2018-11-01T04:28:52.303Z,0.00
2018-11-01T04:29:52.403Z,0.00
2018-11-01T04:30:52.263Z,0.00
2018-11-01T04:31:52.194Z,0.00
2018-11-01T04:32:52.170Z,0.00
2018-11-01T04:33:52.230Z,0.00
2018-11-01T04:34:52.174Z,0.00
2018-11-01T04:35:52.214Z,0.00
2018-11-01T04:36:52.065Z,0.00
2018-11-01T04:37:52.036Z,0.00
2018-11-01T04:38:52.048Z,0.00
2018-11-01T04:39:52.005Z,0.00
2018-11-01T04:40:52.072Z,0.00
2018-11-01T04:41:51.938Z,0.00
2018-11-01T04:42:51.916Z,0.00
2018-11-01T04:43:51.869Z,0.00
2018-11-01T04:44:51.900Z,0.00
2018-11-01T04:45:51.928Z,0.00
2018-11-01T04:46:51.818Z,0.00
2018-11-01T04:47:51.894Z,0.00
2018-11-01T04:48:51.741Z,0.00
2018-11-01T04:49:51.734Z,0.00
2018-11-01T04:50:51.781Z,0.00
2018-11-01T04:51:51.648Z,0.00
2018-11-01T04:52:51.653Z,0.00
2018-11-01T04:53:51.628Z,0.00
2018-11-01T04:54:51.579Z,0.00
2018-11-01T04:55:51.668Z,0.00
2018-11-01T04:56:51.539Z,0.00
2018-11-01T04:57:51.526Z,0.00
2018-11-01T04:58:51.479Z,0.00
2018-11-01T04:59:51.466Z,0.00
2018-11-01T05:00:51.429Z,0.00
2018-11-01T05:01:51.500Z,0.00
2018-11-01T05:02:51.387Z,0.00
2018-11-01T05:03:51.358Z,0.00
2018-11-01T05:04:51.372Z,0.00
2018-11-01T05:05:51.291Z,0.00
2018-11-01T05:06:51.282Z,0.00
2018-11-01T05:07:51.323Z,0.00
2018-11-01T05:08:51.219Z,0.00
2018-11-01T05:09:51.184Z,0.00
2018-11-01T05:10:51.162Z,0.00
2018-11-01T05:11:51.114Z,0.00
2018-11-01T05:12:51.154Z,0.00
2018-11-01T05:13:51.189Z,0.00
2018-11-01T05:14:51.051Z,0.00
2018-11-01T05:15:51.024Z,0.00
2018-11-01T05:16:50.994Z,0.00
2018-11-01T05:17:51.083Z,0.00
2018-11-01T05:18:51.044Z,0.00
2018-11-01T05:19:50.931Z,0.00
2018-11-01T05:20:50.901Z,0.00
2018-11-01T05:21:50.872Z,0.00
2018-11-01T05:22:50.836Z,0.00
2018-11-01T05:23:50.905Z,0.00
2018-11-01T05:24:50.793Z,0.00
2018-11-01T05:25:50.814Z,0.00
2018-11-01T05:26:50.744Z,0.00
2018-11-01T05:27:50.687Z,0.00
2018-11-01T05:28:50.774Z,0.00
2018-11-01T05:29:50.647Z,0.00
2018-11-01T05:30:50.629Z,0.00
2018-11-01T05:31:50.598Z,0.00
2018-11-01T05:32:50.594Z,0.00
2018-11-01T05:33:50.639Z,0.00
2018-11-01T05:34:50.515Z,0.00
2018-11-01T05:35:50.478Z,0.00
2018-11-01T05:36:50.448Z,0.00
2018-11-01T05:37:50.513Z,0.00
2018-11-01T05:38:50.416Z,0.00
2018-11-01T05:39:50.464Z,0.00
2018-11-01T05:40:50.333Z,0.00
2018-11-01T05:41:50.368Z,0.00
2018-11-01T05:42:50.300Z,0.00
2018-11-01T05:43:50.275Z,0.00
2018-11-01T05:44:50.222Z,0.00
2018-11-01T05:45:50.321Z,0.00
2018-11-01T05:46:50.197Z,0.00
2018-11-01T05:47:50.145Z,0.00
2018-11-01T05:48:50.138Z,0.00
2018-11-01T05:49:50.109Z,0.00
2018-11-01T05:50:50.180Z,0.00
2018-11-01T05:51:50.054Z,0.00
2018-11-01T05:52:50.037Z,0.00
2018-11-01T05:53:49.982Z,0.00
2018-11-01T05:54:50.011Z,0.00
2018-11-01T05:55:50.060Z,0.00
2018-11-01T05:56:49.923Z,0.00
2018-11-01T05:57:49.885Z,0.00
2018-11-01T05:58:49.858Z,0.00
2018-11-01T05:59:49.857Z,0.00
2018-11-01T06:00:49.913Z,0.00
2018-11-01T06:01:49.767Z,0.00
2018-11-01T06:02:49.823Z,0.00
2018-11-01T06:03:49.707Z,0.00
2018-11-01T06:04:49.699Z,0.00
2018-11-01T06:05:49.806Z,0.00
2018-11-01T06:06:49.638Z,0.00
2018-11-01T06:07:49.595Z,0.00
2018-11-01T06:08:49.582Z,0.00
2018-11-01T06:09:49.554Z,0.00
2018-11-01T06:10:49.616Z,0.00
2018-11-01T06:11:49.489Z,0.00
2018-11-01T06:12:49.476Z,0.00
2018-11-01T06:13:49.455Z,0.00
2018-11-01T06:14:49.433Z,0.00
2018-11-01T06:15:49.385Z,0.00
2018-11-01T06:16:49.460Z,0.00
2018-11-01T06:17:49.337Z,0.00
2018-11-01T06:18:49.307Z,0.00
2018-11-01T06:19:49.297Z,0.00
2018-11-01T06:20:49.436Z,0.00
2018-11-01T06:21:49.243Z,0.00
2018-11-01T06:22:49.294Z,0.00
2018-11-01T06:23:49.185Z,0.00
2018-11-01T06:24:49.149Z,0.00
2018-11-01T06:25:49.151Z,0.00
2018-11-01T06:26:49.100Z,0.00
2018-11-01T06:27:49.152Z,0.00
2018-11-01T06:28:49.040Z,0.00
2018-11-01T06:29:49.057Z,0.00
2018-11-01T06:30:48.981Z,0.00
2018-11-01T06:31:48.951Z,0.00
2018-11-01T06:32:49.029Z,0.00
2018-11-01T06:33:48.950Z,0.00
2018-11-01T06:34:48.864Z,0.00
2018-11-01T06:35:48.867Z,0.00
2018-11-01T06:36:48.824Z,0.00
2018-11-01T06:37:48.934Z,0.00
2018-11-01T06:38:48.759Z,0.00
2018-11-01T06:39:48.748Z,0.00
2018-11-01T06:40:48.706Z,0.00
2018-11-01T06:41:48.675Z,0.00
2018-11-01T06:42:48.747Z,0.00
2018-11-01T06:43:48.618Z,0.00
2018-11-01T06:44:48.680Z,0.00
2018-11-01T06:45:48.590Z,0.00
2018-11-01T06:46:48.543Z,0.00
2018-11-01T06:47:48.624Z,0.00
2018-11-01T06:48:48.514Z,0.00
2018-11-01T06:49:48.467Z,0.00
2018-11-01T06:50:48.472Z,0.00
2018-11-01T06:51:48.418Z,0.00
2018-11-01T06:52:48.394Z,0.00
2018-11-01T06:53:48.456Z,0.00
2018-11-01T06:54:48.329Z,0.00
2018-11-01T06:55:48.304Z,0.00
2018-11-01T06:56:48.275Z,0.00
2018-11-01T06:57:48.247Z,0.00
2018-11-01T06:58:48.301Z,0.00
2018-11-01T06:59:48.313Z,0.00
2018-11-01T07:00:48.168Z,0.00
2018-11-01T07:01:48.130Z,0.00
2018-11-01T07:02:48.122Z,0.00
2018-11-01T07:03:48.081Z,0.00
2018-11-01T07:04:48.218Z,0.00
2018-11-01T07:05:48.124Z,0.00
2018-11-01T07:06:48.026Z,0.00
2018-11-01T07:07:48.036Z,0.00
2018-11-01T07:08:47.965Z,0.00
2018-11-01T07:09:48.023Z,0.00
2018-11-01T07:10:47.909Z,0.00
2018-11-01T07:11:47.886Z,0.00
2018-11-01T07:12:47.856Z,0.00
2018-11-01T07:13:47.828Z,0.00
2018-11-01T07:14:47.894Z,0.00
2018-11-01T07:15:47.771Z,0.00
2018-11-01T07:16:47.742Z,0.00
2018-11-01T07:17:47.715Z,0.00
2018-11-01T07:18:47.675Z,0.00
2018-11-01T07:19:47.759Z,0.00
2018-11-01T07:20:47.625Z,0.00
2018-11-01T07:21:47.628Z,0.00
2018-11-01T07:22:47.589Z,0.00
2018-11-01T07:23:47.554Z,0.00
2018-11-01T07:24:47.590Z,0.00
2018-11-01T07:25:47.705Z,0.00
2018-11-01T07:26:47.471Z,0.00
2018-11-01T07:27:47.505Z,0.00
2018-11-01T07:28:47.430Z,0.00
2018-11-01T07:29:47.378Z,0.00
2018-11-01T07:30:47.426Z,0.00
2018-11-01T07:31:47.428Z,0.00
2018-11-01T07:32:47.572Z,0.00
2018-11-01T07:33:47.278Z,0.00
2018-11-01T07:34:47.255Z,0.00
2018-11-01T07:35:47.219Z,0.00
2018-11-01T07:36:47.314Z,0.00
2018-11-01T07:37:47.167Z,0.00
2018-11-01T07:38:47.149Z,0.00
2018-11-01T07:39:47.203Z,0.00
2018-11-01T07:40:47.097Z,0.00
2018-11-01T07:41:47.168Z,0.00
2018-11-01T07:42:47.049Z,0.00
2018-11-01T07:43:47.034Z,0.00
2018-11-01T07:44:46.979Z,0.00
2018-11-01T07:45:46.968Z,0.00
2018-11-01T07:46:47.025Z,0.00
2018-11-01T07:47:46.892Z,0.00
2018-11-01T07:48:47.040Z,0.00
2018-11-01T07:49:46.879Z,0.00
2018-11-01T07:50:46.827Z,0.00
2018-11-01T07:51:46.883Z,0.00
2018-11-01T07:52:46.774Z,0.00
2018-11-01T07:53:46.750Z,0.00
2018-11-01T07:54:46.721Z,0.00
2018-11-01T07:55:46.684Z,0.00
2018-11-01T07:56:46.668Z,0.00
2018-11-01T07:57:46.733Z,0.00
2018-11-01T07:58:46.611Z,0.00
2018-11-01T07:59:46.592Z,0.00
2018-11-01T08:00:46.564Z,0.00
2018-11-01T08:01:46.548Z,0.00
2018-11-01T08:02:46.540Z,0.00
2018-11-01T08:03:46.589Z,0.00
2018-11-01T08:04:46.438Z,0.00
2018-11-01T08:05:46.502Z,0.00
2018-11-01T08:06:46.411Z,0.00
2018-11-01T08:07:46.375Z,0.00
2018-11-01T08:08:46.336Z,0.00
2018-11-01T08:09:46.468Z,0.00
2018-11-01T08:10:46.296Z,0.00
2018-11-01T08:11:46.323Z,0.00
2018-11-01T08:12:46.231Z,0.00
2018-11-01T08:13:46.245Z,0.00
2018-11-01T08:14:46.305Z,0.00
2018-11-01T08:15:46.140Z,0.00
2018-11-01T08:16:46.114Z,0.00
2018-11-01T08:17:46.097Z,0.00
2018-11-01T08:18:46.077Z,0.00
2018-11-01T08:19:46.220Z,0.00
2018-11-01T08:20:46.170Z,0.00
2018-11-01T08:21:45.991Z,0.00
2018-11-01T08:22:45.951Z,0.00
2018-11-01T08:23:45.927Z,0.00
2018-11-01T08:24:46.008Z,0.00
2018-11-01T08:25:45.896Z,0.00
2018-11-01T08:26:45.839Z,0.00
2018-11-01T08:27:45.914Z,0.00
2018-11-01T08:28:45.822Z,0.00
2018-11-01T08:29:45.867Z,0.00
2018-11-01T08:30:45.769Z,0.00
2018-11-01T08:31:45.703Z,0.00
2018-11-01T08:32:45.699Z,0.00
2018-11-01T08:33:45.698Z,0.00
2018-11-01T08:34:45.630Z,0.00
2018-11-01T08:35:45.716Z,0.00
2018-11-01T08:36:45.591Z,0.00
2018-11-01T08:37:45.546Z,0.00
2018-11-01T08:38:45.521Z,0.00
2018-11-01T08:39:45.528Z,0.00
2018-11-01T08:40:45.565Z,0.00
2018-11-01T08:41:45.452Z,0.00
2018-11-01T08:42:45.405Z,0.00
2018-11-01T08:43:45.391Z,0.00
2018-11-01T08:44:45.373Z,0.00
2018-11-01T08:45:45.372Z,0.00
2018-11-01T08:46:45.413Z,0.00
2018-11-01T08:47:45.287Z,0.00
2018-11-01T08:48:45.264Z,0.00
2018-11-01T08:49:45.250Z,0.00
2018-11-01T08:50:45.212Z,0.00
2018-11-01T08:51:45.285Z,0.00
2018-11-01T08:52:45.144Z,0.00
2018-11-01T08:53:45.109Z,0.00
2018-11-01T08:54:45.091Z,0.00
2018-11-01T08:55:45.086Z,0.00
2018-11-01T08:56:45.143Z,0.00
2018-11-01T08:57:45.023Z,0.00
2018-11-01T08:58:44.988Z,0.00
2018-11-01T08:59:44.983Z,0.00
2018-11-01T09:00:44.944Z,0.00
2018-11-01T09:01:44.993Z,0.00
2018-11-01T09:02:44.881Z,0.00
2018-11-01T09:03:44.858Z,0.00
2018-11-01T09:04:44.867Z,0.00
2018-11-01T09:05:44.815Z,0.00
2018-11-01T09:06:44.848Z,0.00
2018-11-01T09:07:44.978Z,0.00
2018-11-01T09:08:44.709Z,0.00
2018-11-01T09:09:44.699Z,0.00
2018-11-01T09:10:44.655Z,0.00
2018-11-01T09:11:44.627Z,0.00
2018-11-01T09:12:44.770Z,0.00
2018-11-01T09:13:44.589Z,0.00
2018-11-01T09:14:44.569Z,0.00
2018-11-01T09:15:44.514Z,0.00
2018-11-01T09:16:44.494Z,0.00
2018-11-01T09:17:44.494Z,0.00
2018-11-01T09:18:44.534Z,0.00
2018-11-01T09:19:44.469Z,0.00
2018-11-01T09:20:44.390Z,0.00
2018-11-01T09:21:44.362Z,0.00
2018-11-01T09:22:44.380Z,0.00
2018-11-01T09:23:44.297Z,0.00
2018-11-01T09:24:45.105Z,0.00
2018-11-01T09:27:46.735Z,0.00
2018-11-01T09:28:44.984Z,0.00
2018-11-01T09:30:44.116Z,0.00
2018-11-01T09:33:44.437Z,0.00
2018-11-01T09:39:46.067Z,0.00
2018-11-01T09:41:45.448Z,0.00
2018-11-01T09:42:47.408Z,0.00
2018-11-01T09:43:45.198Z,0.00
2018-11-01T09:47:45.207Z,0.00
2018-11-01T09:48:44.529Z,0.00
2018-11-01T09:51:43.540Z,0.00
2018-11-01T09:52:43.620Z,0.00
2018-11-01T09:53:43.510Z,0.00
2018-11-01T09:54:43.466Z,0.00
2018-11-01T09:55:43.614Z,0.00
2018-11-01T09:56:43.424Z,0.00
2018-11-01T09:57:43.382Z,0.00
2018-11-01T09:58:43.467Z,0.00
2018-11-01T09:59:43.339Z,0.00
2018-11-01T10:00:43.296Z,0.00
2018-11-01T10:01:43.266Z,0.00
2018-11-01T10:02:43.242Z,0.00
2018-11-01T10:03:43.208Z,0.00
2018-11-01T10:04:43.285Z,0.00
2018-11-01T10:05:43.177Z,0.00
2018-11-01T10:06:43.205Z,0.00
2018-11-01T10:07:43.126Z,0.00
2018-11-01T10:08:43.088Z,0.00
2018-11-01T10:09:43.156Z,0.00
2018-11-01T10:10:43.025Z,0.00
2018-11-01T10:11:42.988Z,0.00
2018-11-01T10:12:42.970Z,0.00
2018-11-01T10:13:42.993Z,0.00
2018-11-01T10:14:42.920Z,0.00
2018-11-01T10:15:43.196Z,0.00
2018-11-01T10:16:43.071Z,0.00
2018-11-01T10:17:43.454Z,0.00
2018-11-01T10:18:42.799Z,0.00
2018-11-01T10:19:42.770Z,0.00
2018-11-01T10:20:42.884Z,0.00
2018-11-01T10:21:42.725Z,0.00
2018-11-01T10:22:42.852Z,0.00
2018-11-01T10:23:42.661Z,0.00
2018-11-01T10:24:42.658Z,0.00
2018-11-01T10:25:42.738Z,0.00
2018-11-01T10:26:42.581Z,0.00
2018-11-01T10:27:42.644Z,0.00
2018-11-01T10:28:42.533Z,0.00
2018-11-01T10:29:42.577Z,0.00
2018-11-01T10:30:42.523Z,0.00
2018-11-01T10:31:42.440Z,0.00
2018-11-01T10:32:42.430Z,0.00
2018-11-01T10:33:42.405Z,0.00
2018-11-01T10:34:42.375Z,0.00
2018-11-01T10:35:42.341Z,0.00
2018-11-01T10:36:42.380Z,0.00
2018-11-01T10:37:42.292Z,0.00
2018-11-01T10:38:42.254Z,0.00
2018-11-01T10:39:42.241Z,0.00
2018-11-01T10:40:42.247Z,0.00
2018-11-01T10:41:42.289Z,0.00
2018-11-01T10:42:42.165Z,0.00
2018-11-01T10:43:42.117Z,0.00
2018-11-01T10:44:42.099Z,0.00
2018-11-01T10:45:42.074Z,0.00
2018-11-01T10:46:42.137Z,0.00
2018-11-01T10:47:42.218Z,0.00
2018-11-01T10:48:41.988Z,0.00
2018-11-01T10:49:41.958Z,0.00
2018-11-01T10:50:41.939Z,0.00
2018-11-01T10:51:41.925Z,0.00
2018-11-01T10:52:41.984Z,0.00
2018-11-01T10:53:41.854Z,0.00
2018-11-01T10:54:41.820Z,0.00
2018-11-01T10:55:41.800Z,0.00
2018-11-01T10:56:41.786Z,0.00
2018-11-01T10:57:41.796Z,0.00
2018-11-01T10:58:41.732Z,0.00
2018-11-01T10:59:41.697Z,0.00
2018-11-01T11:00:41.771Z,0.00
2018-11-01T11:01:41.636Z,0.00
2018-11-01T11:02:41.702Z,0.00
2018-11-01T11:03:41.577Z,0.00
2018-11-01T11:04:41.541Z,0.00
2018-11-01T11:05:41.577Z,0.00
2018-11-01T11:06:41.644Z,0.00
2018-11-01T11:07:41.589Z,0.00
2018-11-01T11:08:41.443Z,0.00
2018-11-01T11:09:41.429Z,0.00
2018-11-01T11:11:42.522Z,0.00
2018-11-01T11:14:42.299Z,0.00
2018-11-01T11:16:42.549Z,0.00
2018-11-01T11:20:42.093Z,0.00
2018-11-01T11:22:41.607Z,4.00
2018-11-01T11:23:42.133Z,0.00
2018-11-01T11:25:42.721Z,4.00
2018-11-01T11:29:43.596Z,16.00
2018-11-01T11:37:41.858Z,68.00
2018-11-01T11:39:43.500Z,88.00
2018-11-01T11:40:41.380Z,96.00
2018-11-01T11:47:40.389Z,160.00
2018-11-01T11:48:40.456Z,164.00
2018-11-01T11:49:40.323Z,172.00
2018-11-01T11:50:40.326Z,184.00
2018-11-01T11:51:40.423Z,192.00
2018-11-01T11:52:40.233Z,200.00
2018-11-01T11:53:40.204Z,204.00
2018-11-01T11:54:40.283Z,212.00
2018-11-01T11:55:40.154Z,220.00
2018-11-01T11:56:40.125Z,232.00
2018-11-01T11:57:40.095Z,240.00
2018-11-01T11:58:40.073Z,252.00
2018-11-01T11:59:40.162Z,260.00
2018-11-01T12:00:40.016Z,268.00
2018-11-01T12:01:40.004Z,276.00
2018-11-01T12:02:40.454Z,284.00
2018-11-01T12:03:39.946Z,300.00
2018-11-01T12:04:39.998Z,296.00
2018-11-01T12:05:40.164Z,304.00
2018-11-01T12:06:41.665Z,308.00
2018-11-01T12:07:39.826Z,312.00
2018-11-01T12:08:41.255Z,316.00
2018-11-01T12:09:42.278Z,316.00
2018-11-01T12:10:41.426Z,328.00
2018-11-01T12:11:41.917Z,328.00
2018-11-01T12:12:39.706Z,324.00
2018-11-01T12:13:39.686Z,328.00
2018-11-01T12:14:39.660Z,320.00
2018-11-01T12:15:40.100Z,316.00
2018-11-01T12:16:39.682Z,312.00
2018-11-01T12:17:39.562Z,308.00
2018-11-01T12:18:39.521Z,288.00
2018-11-01T12:19:39.501Z,256.00
2018-11-01T12:20:39.701Z,244.00
2018-11-01T12:21:39.504Z,240.00
2018-11-01T12:22:39.423Z,232.00
2018-11-01T12:23:39.430Z,228.00
2018-11-01T12:24:39.505Z,224.00
2018-11-01T12:25:39.352Z,216.00
2018-11-01T12:26:39.430Z,212.00
2018-11-01T12:27:39.292Z,208.00
2018-11-01T12:28:39.333Z,204.00
2018-11-01T12:29:39.233Z,200.00
2018-11-01T12:30:39.213Z,204.00
2018-11-01T12:31:39.183Z,200.00
2018-11-01T12:32:39.280Z,200.00
2018-11-01T12:33:39.134Z,200.00
2018-11-01T12:34:39.104Z,200.00
2018-11-01T12:35:39.807Z,200.00
2018-11-01T12:36:39.071Z,200.00
2018-11-01T12:37:39.125Z,200.00
2018-11-01T12:38:39.003Z,200.00
2018-11-01T12:39:38.976Z,200.00
2018-11-01T12:40:38.959Z,204.00
2018-11-01T12:41:39.074Z,204.00
2018-11-01T12:42:38.995Z,208.00
2018-11-01T12:43:38.865Z,212.00
2018-11-01T12:44:38.851Z,212.00
2018-11-01T12:45:38.816Z,212.00
2018-11-01T12:46:38.788Z,216.00
2018-11-01T12:47:38.884Z,220.00
2018-11-01T12:48:38.737Z,224.00
2018-11-01T12:49:38.793Z,228.00
2018-11-01T12:50:38.742Z,232.00
2018-11-01T12:51:38.759Z,240.00
2018-11-01T12:52:38.748Z,244.00
2018-11-01T12:53:38.611Z,248.00
2018-11-01T12:54:38.593Z,256.00
2018-11-01T12:55:38.575Z,260.00
2018-11-01T12:56:38.530Z,264.00
2018-11-01T12:57:38.623Z,276.00
2018-11-01T12:58:38.466Z,280.00
2018-11-01T12:59:38.469Z,288.00
2018-11-01T13:00:38.490Z,296.00
2018-11-01T13:01:38.460Z,304.00
2018-11-01T13:02:38.501Z,312.00
2018-11-01T13:03:38.449Z,320.00
2018-11-01T13:04:38.326Z,332.00
2018-11-01T13:05:38.301Z,336.00
2018-11-01T13:06:38.273Z,352.00
2018-11-01T13:07:38.266Z,360.00
2018-11-01T13:08:38.225Z,372.00
2018-11-01T13:09:38.300Z,388.00
2018-11-01T13:10:38.206Z,408.00
2018-11-01T13:11:38.156Z,428.00
2018-11-01T13:12:38.129Z,448.00
2018-11-01T13:13:38.116Z,472.00
2018-11-01T13:14:38.197Z,480.00
2018-11-01T13:15:38.050Z,492.00
2018-11-01T13:16:38.014Z,508.00
2018-11-01T13:17:38.002Z,520.00
2018-11-01T13:18:37.979Z,532.00
2018-11-01T13:19:38.059Z,552.00
2018-11-01T13:20:37.932Z,572.00
2018-11-01T13:21:37.902Z,592.00
2018-11-01T13:22:37.864Z,624.00
2018-11-01T13:23:37.836Z,644.00
2018-11-01T13:24:37.906Z,644.00
2018-11-01T13:25:37.800Z,652.00
2018-11-01T13:26:37.766Z,672.00
2018-11-01T13:27:37.740Z,696.00
2018-11-01T13:28:37.828Z,740.00
2018-11-01T13:29:37.778Z,776.00
2018-11-01T13:30:37.680Z,848.00
2018-11-01T13:31:37.614Z,892.00
2018-11-01T13:32:37.686Z,928.00
2018-11-01T13:33:37.595Z,960.00
2018-11-01T13:34:37.683Z,992.00
2018-11-01T13:35:37.562Z,1016.00
2018-11-01T13:36:37.505Z,1008.00
2018-11-01T13:37:37.588Z,964.00
2018-11-01T13:38:37.449Z,904.00
2018-11-01T13:39:37.587Z,896.00
2018-11-01T13:40:37.930Z,932.00
2018-11-01T13:41:37.436Z,924.00
2018-11-01T13:42:37.471Z,940.00
2018-11-01T13:43:37.327Z,940.00
2018-11-01T13:44:37.308Z,936.00
2018-11-01T13:45:37.325Z,940.00
2018-11-01T13:46:37.600Z,960.00
2018-11-01T13:47:37.269Z,956.00
2018-11-01T13:48:37.192Z,964.00
2018-11-01T13:49:37.169Z,972.00
2018-11-01T13:50:37.177Z,988.00
2018-11-01T13:51:37.280Z,1008.00
2018-11-01T13:52:37.093Z,1024.00
2018-11-01T13:53:37.125Z,1044.00
2018-11-01T13:54:37.142Z,1052.00
2018-11-01T13:55:37.076Z,1068.00
2018-11-01T13:56:37.302Z,1080.00
2018-11-01T13:57:37.044Z,1080.00
2018-11-01T13:58:37.692Z,1096.00
2018-11-01T13:59:37.115Z,1116.00
2018-11-01T14:00:37.102Z,1136.00
2018-11-01T14:01:36.996Z,1160.00
2018-11-01T14:02:36.845Z,1180.00
2018-11-01T14:03:36.823Z,1224.00
2018-11-01T14:04:36.811Z,1252.00
2018-11-01T14:05:36.827Z,1404.00
2018-11-01T14:06:36.836Z,1368.00
2018-11-01T14:07:36.733Z,1356.00
2018-11-01T14:08:36.724Z,1352.00
2018-11-01T14:09:36.698Z,1372.00
2018-11-01T14:10:36.751Z,1456.00
2018-11-01T14:11:36.718Z,1448.00
2018-11-01T14:12:36.625Z,1536.00
2018-11-01T14:13:36.705Z,1552.00
2018-11-01T14:14:36.997Z,1476.00
2018-11-01T14:15:36.590Z,1456.00
2018-11-01T14:16:36.551Z,1536.00
2018-11-01T14:17:36.521Z,1564.00
2018-11-01T14:18:36.459Z,1728.00
2018-11-01T14:19:36.435Z,1860.00
2018-11-01T14:20:36.401Z,1912.00
2018-11-01T14:21:36.401Z,1940.00
2018-11-01T14:22:36.351Z,1956.00
2018-11-01T14:23:36.441Z,1896.00